Details From ESSA - Stockholm Arlanda
To VDPP - Phnom Penh Intl
Flight Number -
Tags Generated
Created
Modified
Stats Distance 4,716 nm / 8,733 km
Max Altitude 0 ft / 0 m
Waypoints 12
Social Downloads 1
Likes 0
Share VATSIM

Download

Looking for another format? Having issues loading an existing format? Contact us
Advertisement - Login to hide

Notes

Generated

Route

ESSA TLL33 KR01 OLGOR LAMTU MENSI TELVU BIOTA NR TOPER PNH VDPP

ID Type Via Altitude Latitude Longitude Leg Dist Tot Dist Heading (true) Name
O ESSA APT - 0 ft / 0 m 59.62640˚ 17.95074˚ - 0 nm - -
TLL33 FIX - 0 ft / 0 m 59.65230˚ 24.71084˚ 205 nm 205 nm 87° / 92° -
KR01 FIX - 0 ft / 0 m 59.45000˚ 32.05000˚ 223 nm 428 nm 90° / 96° -
OLGOR FIX - 0 ft / 0 m 58.71667˚ 39.33333˚ 228 nm 657 nm 98° / 104° -
LAMTU FIX - 0 ft / 0 m 57.30500˚ 46.76333˚ 250 nm 908 nm 107° / 113° -
MENSI FIX - 0 ft / 0 m 55.71667˚ 53.10000˚ 230 nm 1139 nm 112° / 117° -
TELVU FIX - 0 ft / 0 m 54.06667˚ 58.78333˚ 219 nm 1358 nm 114° / 119° -
BIOTA FIX - 0 ft / 0 m 44.35667˚ 76.70667˚ 909 nm 2267 nm 123° / 136° -
NR NDB - 0 ft / 0 m 27.28685˚ 94.09094˚ 1323 nm 3591 nm 135° / 145° LILABARI NDB
TOPER FIX - 0 ft / 0 m 14.58497˚ 102.72978˚ 902 nm 4494 nm 146° / 149° -
PNH VOR - 0 ft / 0 m 11.54667˚ 104.84167˚ 220 nm 4714 nm 146° / 146° PHNOM PENH VOR-DME
O VDPP APT - 0 ft / 0 m 11.53713˚ 104.83433˚ 0 nm 4715 nm 217° / 217° -

Altitude Profile

Advertisement - Login to hide

Weather


0- 5 10 15 20 25 30 35+ Temperature / ° C

Clouds and Precipitation
Forecast for 2017-12-17 18:00 UTC. Updated an hour ago

Ground ~20,000 ft ~40,000 ft Winds

ESSA

Details ICAO ESSA (ARN)
Name Stockholm Arlanda
Region Sweden
Timezone Europe/Stockholm (UTC+1.0)
Stats Elevation 137 ft / 42 m (AMSL)
Location 59.650140° 17.943628°
Runways 3
Magnetic Variation 6.102° E

METAR

ESSA 171420Z 25006KT CAVOK M05/M06 Q1012 R01L/71//68 R01R/71//68 R08/71//65 NOSIG

Decode

TAF

TAF ESSA 171130Z 1712/1812 24005KT CAVOK BECMG 1805/1807 BKN004 TEMPO 1807/1810 BKN008 TEMPO 1810/1812 2000 -SN VV010

Decode

Departure Runways

ID Width Length Bearing (true) Bearing (mag) Surface Threshold Offset Overrun Length
01L 148 ft / 45 m 10,812 ft / 3,296 m 10.35° 4.25° Concrete 0 ft / 0 m 0 ft / 0 m
01R 148 ft / 45 m 8,188 ft / 2,496 m 10.38° 4.28° Asphalt 0 ft / 0 m 0 ft / 0 m
08 148 ft / 45 m 8,178 ft / 2,493 m 75.83° 69.73° Concrete 0 ft / 0 m 0 ft / 0 m
19L 148 ft / 45 m 8,188 ft / 2,496 m 190.39° 184.29° Asphalt 0 ft / 0 m 0 ft / 0 m
19R 148 ft / 45 m 10,812 ft / 3,296 m 190.36° 184.26° Concrete 0 ft / 0 m 0 ft / 0 m
26 148 ft / 45 m 8,178 ft / 2,493 m 255.87° 249.77° Concrete 0 ft / 0 m 0 ft / 0 m

VDPP

Details ICAO VDPP (PNH)
Name Phnom Penh Intl
Region Cambodia
Timezone Asia/Phnom_Penh (UTC+7.0)
Stats Elevation 40 ft / 12 m (AMSL)
Location 11.546542° 104.844142°
Runways 1
Magnetic Variation 0.493° W

METAR

VDPP 171400Z 01008KT 340V040 9000 FEW017 SCT040 26/20 Q1015

Decode

TAF

TAF VDPP 171100Z 1712/1806 01011KT 9999 FEW017 SCT040= TAF VDSR 171100Z 1712/1806 35010KT 9999 SCT017

Decode

Destination Runways

ID Width Length Bearing (true) Bearing (mag) Surface Threshold Offset Overrun Length
05 144 ft / 44 m 9,815 ft / 2,992 m 45.61° 46.10° Asphalt 400 ft / 122 m 0 ft / 0 m
23 144 ft / 44 m 9,815 ft / 2,992 m 225.61° 226.10° Asphalt 492 ft / 150 m 0 ft / 0 m

Approach Navaids

Runway Type Ident Frequency Range Bearing (true) Bearing (mag) Slope Elevation
23 Localiser IPNP 109.70 MHz 18 nm / 33 km 225.62° 226.11° - 40 ft / 12 m (AMSL)
23 Glidescope IPNP 109.70 MHz 10 nm / 19 km 225.61° 226.10° 3.00° 37 ft / 11 m (AMSL)